sensor_id;sensor_type;location;lat;lon;timestamp;P1;durP1;ratioP1;P2;durP2;ratioP2
3847;SDS011;1939;48.720;9.166;2024-01-10T00:01:43;15.73;;;7.10;;
3847;SDS011;1939;48.720;9.166;2024-01-10T00:04:08;13.37;;;7.83;;
3847;SDS011;1939;48.720;9.166;2024-01-10T00:06:33;21.60;;;8.03;;
3847;SDS011;1939;48.720;9.166;2024-01-10T00:08:58;18.83;;;7.97;;
3847;SDS011;1939;48.720;9.166;2024-01-10T00:11:23;18.63;;;8.60;;
3847;SDS011;1939;48.720;9.166;2024-01-10T00:13:49;13.80;;;7.50;;
3847;SDS011;1939;48.720;9.166;2024-01-10T00:16:14;16.77;;;6.90;;
3847;SDS011;1939;48.720;9.166;2024-01-10T00:18:40;19.23;;;8.53;;
3847;SDS011;1939;48.720;9.166;2024-01-10T00:21:05;21.63;;;6.80;;
3847;SDS011;1939;48.720;9.166;2024-01-10T00:23:31;20.50;;;9.53;;
3847;SDS011;1939;48.720;9.166;2024-01-10T00:25:56;15.97;;;7.87;;
3847;SDS011;1939;48.720;9.166;2024-01-10T00:28:21;22.40;;;8.73;;
3847;SDS011;1939;48.720;9.166;2024-01-10T00:30:47;19.57;;;8.83;;
3847;SDS011;1939;48.720;9.166;2024-01-10T00:33:15;20.87;;;9.67;;
3847;SDS011;1939;48.720;9.166;2024-01-10T00:35:40;26.63;;;9.00;;
3847;SDS011;1939;48.720;9.166;2024-01-10T00:38:05;17.73;;;7.97;;
3847;SDS011;1939;48.720;9.166;2024-01-10T00:40:30;16.63;;;8.10;;
3847;SDS011;1939;48.720;9.166;2024-01-10T00:42:56;17.13;;;9.60;;
3847;SDS011;1939;48.720;9.166;2024-01-10T00:45:21;18.10;;;9.50;;
3847;SDS011;1939;48.720;9.166;2024-01-10T00:47:48;19.70;;;8.77;;
3847;SDS011;1939;48.720;9.166;2024-01-10T00:50:13;17.13;;;8.70;;
3847;SDS011;1939;48.720;9.166;2024-01-10T00:52:39;19.10;;;9.70;;
3847;SDS011;1939;48.720;9.166;2024-01-10T00:55:04;27.03;;;9.40;;
3847;SDS011;1939;48.720;9.166;2024-01-10T00:57:29;24.67;;;8.50;;
3847;SDS011;1939;48.720;9.166;2024-01-10T00:59:54;20.87;;;8.00;;
3847;SDS011;1939;48.720;9.166;2024-01-10T01:02:19;16.70;;;8.73;;
3847;SDS011;1939;48.720;9.166;2024-01-10T01:04:45;19.70;;;7.73;;
3847;SDS011;1939;48.720;9.166;2024-01-10T01:07:10;18.93;;;7.50;;
3847;SDS011;1939;48.720;9.166;2024-01-10T01:09:35;18.63;;;8.77;;
3847;SDS011;1939;48.720;9.166;2024-01-10T01:12:00;18.90;;;8.93;;
3847;SDS011;1939;48.720;9.166;2024-01-10T01:14:26;20.67;;;8.57;;
3847;SDS011;1939;48.720;9.166;2024-01-10T01:16:51;15.60;;;8.50;;
3847;SDS011;1939;48.720;9.166;2024-01-10T01:19:16;28.90;;;9.83;;
3847;SDS011;1939;48.720;9.166;2024-01-10T01:21:42;20.47;;;9.43;;
3847;SDS011;1939;48.720;9.166;2024-01-10T01:24:09;26.70;;;10.40;;
3847;SDS011;1939;48.720;9.166;2024-01-10T01:26:34;19.90;;;9.87;;
3847;SDS011;1939;48.720;9.166;2024-01-10T01:29:00;21.93;;;9.00;;
3847;SDS011;1939;48.720;9.166;2024-01-10T01:31:25;16.90;;;10.13;;
3847;SDS011;1939;48.720;9.166;2024-01-10T01:33:50;19.70;;;9.40;;
3847;SDS011;1939;48.720;9.166;2024-01-10T01:36:15;16.83;;;9.13;;
3847;SDS011;1939;48.720;9.166;2024-01-10T01:38:40;25.23;;;10.00;;
3847;SDS011;1939;48.720;9.166;2024-01-10T01:41:06;26.03;;;9.93;;
3847;SDS011;1939;48.720;9.166;2024-01-10T01:43:31;18.10;;;7.60;;
3847;SDS011;1939;48.720;9.166;2024-01-10T01:45:57;17.20;;;8.03;;
3847;SDS011;1939;48.720;9.166;2024-01-10T01:48:23;24.00;;;9.37;;
3847;SDS011;1939;48.720;9.166;2024-01-10T01:50:49;19.57;;;9.23;;
3847;SDS011;1939;48.720;9.166;2024-01-10T01:53:15;20.63;;;7.97;;
3847;SDS011;1939;48.720;9.166;2024-01-10T01:55:44;17.63;;;9.93;;
3847;SDS011;1939;48.720;9.166;2024-01-10T01:58:10;15.10;;;7.67;;
3847;SDS011;1939;48.720;9.166;2024-01-10T02:00:35;20.47;;;8.87;;
3847;SDS011;1939;48.720;9.166;2024-01-10T02:03:01;23.10;;;9.37;;
3847;SDS011;1939;48.720;9.166;2024-01-10T02:05:26;21.93;;;9.43;;
3847;SDS011;1939;48.720;9.166;2024-01-10T02:07:51;23.43;;;10.70;;
3847;SDS011;1939;48.720;9.166;2024-01-10T02:10:17;19.50;;;8.73;;
3847;SDS011;1939;48.720;9.166;2024-01-10T02:12:43;16.00;;;9.23;;
3847;SDS011;1939;48.720;9.166;2024-01-10T02:15:08;21.03;;;7.13;;
3847;SDS011;1939;48.720;9.166;2024-01-10T02:17:34;20.33;;;9.93;;
3847;SDS011;1939;48.720;9.166;2024-01-10T02:20:11;25.47;;;9.37;;
3847;SDS011;1939;48.720;9.166;2024-01-10T02:22:37;31.80;;;12.27;;
3847;SDS011;1939;48.720;9.166;2024-01-10T02:25:09;22.67;;;9.37;;
3847;SDS011;1939;48.720;9.166;2024-01-10T02:27:35;19.63;;;10.67;;
3847;SDS011;1939;48.720;9.166;2024-01-10T02:30:02;19.60;;;11.20;;
3847;SDS011;1939;48.720;9.166;2024-01-10T02:32:27;22.07;;;10.30;;
3847;SDS011;1939;48.720;9.166;2024-01-10T02:34:52;22.73;;;9.77;;
3847;SDS011;1939;48.720;9.166;2024-01-10T02:37:18;27.10;;;10.60;;
3847;SDS011;1939;48.720;9.166;2024-01-10T02:39:43;23.93;;;10.03;;
3847;SDS011;1939;48.720;9.166;2024-01-10T02:42:08;22.97;;;10.23;;
3847;SDS011;1939;48.720;9.166;2024-01-10T02:44:33;20.73;;;9.47;;
3847;SDS011;1939;48.720;9.166;2024-01-10T02:46:58;20.63;;;9.60;;
3847;SDS011;1939;48.720;9.166;2024-01-10T02:49:24;26.83;;;10.73;;
3847;SDS011;1939;48.720;9.166;2024-01-10T02:51:49;24.83;;;9.40;;
3847;SDS011;1939;48.720;9.166;2024-01-10T02:54:14;17.70;;;10.53;;
3847;SDS011;1939;48.720;9.166;2024-01-10T02:56:39;22.47;;;10.10;;
3847;SDS011;1939;48.720;9.166;2024-01-10T02:59:04;24.60;;;12.00;;
3847;SDS011;1939;48.720;9.166;2024-01-10T03:01:30;16.50;;;8.37;;
3847;SDS011;1939;48.720;9.166;2024-01-10T03:03:55;21.27;;;8.80;;
3847;SDS011;1939;48.720;9.166;2024-01-10T03:06:20;26.43;;;10.63;;
3847;SDS011;1939;48.720;9.166;2024-01-10T03:08:45;25.80;;;9.67;;
3847;SDS011;1939;48.720;9.166;2024-01-10T03:11:11;19.60;;;9.83;;
3847;SDS011;1939;48.720;9.166;2024-01-10T03:13:36;20.80;;;10.13;;
3847;SDS011;1939;48.720;9.166;2024-01-10T03:16:02;18.67;;;8.33;;
3847;SDS011;1939;48.720;9.166;2024-01-10T03:18:28;30.30;;;10.80;;
3847;SDS011;1939;48.720;9.166;2024-01-10T03:20:53;19.17;;;8.47;;
3847;SDS011;1939;48.720;9.166;2024-01-10T03:23:18;19.57;;;9.00;;
3847;SDS011;1939;48.720;9.166;2024-01-10T03:25:43;18.83;;;10.27;;
3847;SDS011;1939;48.720;9.166;2024-01-10T03:28:10;24.73;;;10.23;;
3847;SDS011;1939;48.720;9.166;2024-01-10T03:30:35;23.17;;;10.37;;
3847;SDS011;1939;48.720;9.166;2024-01-10T03:33:01;26.00;;;9.57;;
3847;SDS011;1939;48.720;9.166;2024-01-10T03:35:26;19.07;;;8.80;;
3847;SDS011;1939;48.720;9.166;2024-01-10T03:37:51;20.70;;;10.47;;
3847;SDS011;1939;48.720;9.166;2024-01-10T03:40:16;15.73;;;8.60;;
3847;SDS011;1939;48.720;9.166;2024-01-10T03:42:42;20.30;;;9.77;;
3847;SDS011;1939;48.720;9.166;2024-01-10T03:45:07;26.90;;;9.83;;
3847;SDS011;1939;48.720;9.166;2024-01-10T03:47:32;23.50;;;10.40;;
3847;SDS011;1939;48.720;9.166;2024-01-10T03:49:58;18.23;;;10.73;;
3847;SDS011;1939;48.720;9.166;2024-01-10T03:52:23;21.90;;;10.40;;
3847;SDS011;1939;48.720;9.166;2024-01-10T03:54:48;19.87;;;10.17;;
3847;SDS011;1939;48.720;9.166;2024-01-10T03:57:13;23.93;;;12.00;;
3847;SDS011;1939;48.720;9.166;2024-01-10T03:59:39;18.77;;;8.93;;
3847;SDS011;1939;48.720;9.166;2024-01-10T04:02:05;22.20;;;9.80;;
3847;SDS011;1939;48.720;9.166;2024-01-10T04:04:30;26.20;;;10.60;;
3847;SDS011;1939;48.720;9.166;2024-01-10T04:06:55;26.37;;;9.53;;
3847;SDS011;1939;48.720;9.166;2024-01-10T04:09:20;15.73;;;8.43;;
3847;SDS011;1939;48.720;9.166;2024-01-10T04:11:46;17.50;;;8.83;;
3847;SDS011;1939;48.720;9.166;2024-01-10T04:14:11;17.30;;;9.90;;
3847;SDS011;1939;48.720;9.166;2024-01-10T04:16:36;21.00;;;9.30;;
3847;SDS011;1939;48.720;9.166;2024-01-10T04:19:02;21.20;;;9.43;;
3847;SDS011;1939;48.720;9.166;2024-01-10T04:21:27;15.80;;;7.97;;
3847;SDS011;1939;48.720;9.166;2024-01-10T04:23:52;20.43;;;9.23;;
3847;SDS011;1939;48.720;9.166;2024-01-10T04:26:17;25.23;;;11.17;;
3847;SDS011;1939;48.720;9.166;2024-01-10T04:28:43;27.53;;;10.13;;
3847;SDS011;1939;48.720;9.166;2024-01-10T04:31:08;28.40;;;10.73;;
3847;SDS011;1939;48.720;9.166;2024-01-10T04:33:36;24.77;;;9.93;;
3847;SDS011;1939;48.720;9.166;2024-01-10T04:36:01;22.83;;;10.50;;
3847;SDS011;1939;48.720;9.166;2024-01-10T04:38:26;21.60;;;10.17;;
3847;SDS011;1939;48.720;9.166;2024-01-10T04:40:52;20.63;;;10.73;;
3847;SDS011;1939;48.720;9.166;2024-01-10T04:43:17;26.53;;;10.73;;
3847;SDS011;1939;48.720;9.166;2024-01-10T04:45:42;25.37;;;11.47;;
3847;SDS011;1939;48.720;9.166;2024-01-10T04:48:07;32.93;;;10.73;;
3847;SDS011;1939;48.720;9.166;2024-01-10T04:50:34;24.47;;;11.27;;
3847;SDS011;1939;48.720;9.166;2024-01-10T04:52:59;23.50;;;10.73;;
3847;SDS011;1939;48.720;9.166;2024-01-10T04:55:24;32.23;;;10.57;;
3847;SDS011;1939;48.720;9.166;2024-01-10T04:57:49;26.83;;;11.50;;
3847;SDS011;1939;48.720;9.166;2024-01-10T05:00:14;21.70;;;9.60;;
3847;SDS011;1939;48.720;9.166;2024-01-10T05:02:40;24.27;;;9.80;;
3847;SDS011;1939;48.720;9.166;2024-01-10T05:05:05;23.87;;;9.60;;
3847;SDS011;1939;48.720;9.166;2024-01-10T05:07:31;24.43;;;10.00;;
3847;SDS011;1939;48.720;9.166;2024-01-10T05:09:56;18.20;;;8.80;;
3847;SDS011;1939;48.720;9.166;2024-01-10T05:12:22;23.23;;;9.67;;
3847;SDS011;1939;48.720;9.166;2024-01-10T05:14:47;25.10;;;9.50;;
3847;SDS011;1939;48.720;9.166;2024-01-10T05:17:13;20.60;;;9.50;;
3847;SDS011;1939;48.720;9.166;2024-01-10T05:19:39;28.30;;;10.93;;
3847;SDS011;1939;48.720;9.166;2024-01-10T05:22:04;23.63;;;11.20;;
3847;SDS011;1939;48.720;9.166;2024-01-10T05:24:30;28.20;;;11.63;;
3847;SDS011;1939;48.720;9.166;2024-01-10T05:26:55;16.03;;;9.60;;
3847;SDS011;1939;48.720;9.166;2024-01-10T05:29:20;21.47;;;11.23;;
3847;SDS011;1939;48.720;9.166;2024-01-10T05:31:47;19.40;;;9.40;;
3847;SDS011;1939;48.720;9.166;2024-01-10T05:34:12;18.87;;;9.80;;
3847;SDS011;1939;48.720;9.166;2024-01-10T05:36:37;24.73;;;9.90;;
3847;SDS011;1939;48.720;9.166;2024-01-10T05:39:03;21.43;;;8.70;;
3847;SDS011;1939;48.720;9.166;2024-01-10T05:41:28;18.70;;;9.10;;
3847;SDS011;1939;48.720;9.166;2024-01-10T05:43:54;23.93;;;12.40;;
3847;SDS011;1939;48.720;9.166;2024-01-10T05:46:19;19.90;;;10.00;;
3847;SDS011;1939;48.720;9.166;2024-01-10T05:48:45;24.90;;;10.60;;
3847;SDS011;1939;48.720;9.166;2024-01-10T05:51:11;23.90;;;10.13;;
3847;SDS011;1939;48.720;9.166;2024-01-10T05:53:37;15.97;;;9.30;;
3847;SDS011;1939;48.720;9.166;2024-01-10T05:56:02;27.03;;;10.33;;
3847;SDS011;1939;48.720;9.166;2024-01-10T05:58:28;20.63;;;9.53;;
3847;SDS011;1939;48.720;9.166;2024-01-10T06:00:53;29.07;;;11.30;;
3847;SDS011;1939;48.720;9.166;2024-01-10T06:03:20;33.63;;;12.23;;
3847;SDS011;1939;48.720;9.166;2024-01-10T06:05:45;19.00;;;10.47;;
3847;SDS011;1939;48.720;9.166;2024-01-10T06:08:10;21.53;;;9.97;;
3847;SDS011;1939;48.720;9.166;2024-01-10T06:10:35;24.30;;;11.20;;
3847;SDS011;1939;48.720;9.166;2024-01-10T06:13:01;31.37;;;12.17;;
3847;SDS011;1939;48.720;9.166;2024-01-10T06:15:26;27.20;;;11.63;;
3847;SDS011;1939;48.720;9.166;2024-01-10T06:17:51;26.53;;;11.30;;
3847;SDS011;1939;48.720;9.166;2024-01-10T06:20:16;20.80;;;9.83;;
3847;SDS011;1939;48.720;9.166;2024-01-10T06:22:43;24.57;;;12.07;;
3847;SDS011;1939;48.720;9.166;2024-01-10T06:25:08;27.80;;;12.10;;
3847;SDS011;1939;48.720;9.166;2024-01-10T06:27:33;28.93;;;11.77;;
3847;SDS011;1939;48.720;9.166;2024-01-10T06:29:59;19.63;;;10.27;;
3847;SDS011;1939;48.720;9.166;2024-01-10T06:32:24;21.90;;;10.37;;
3847;SDS011;1939;48.720;9.166;2024-01-10T06:34:49;23.40;;;11.00;;
3847;SDS011;1939;48.720;9.166;2024-01-10T06:37:14;28.70;;;11.03;;
3847;SDS011;1939;48.720;9.166;2024-01-10T06:39:41;28.23;;;10.23;;
3847;SDS011;1939;48.720;9.166;2024-01-10T06:42:06;24.17;;;11.10;;
3847;SDS011;1939;48.720;9.166;2024-01-10T06:44:33;30.37;;;10.93;;
3847;SDS011;1939;48.720;9.166;2024-01-10T06:46:58;26.67;;;12.43;;
3847;SDS011;1939;48.720;9.166;2024-01-10T06:49:24;25.60;;;11.57;;
3847;SDS011;1939;48.720;9.166;2024-01-10T06:51:49;21.67;;;10.13;;
3847;SDS011;1939;48.720;9.166;2024-01-10T06:54:14;21.77;;;10.17;;
3847;SDS011;1939;48.720;9.166;2024-01-10T06:56:40;23.10;;;11.60;;
3847;SDS011;1939;48.720;9.166;2024-01-10T06:59:06;25.50;;;10.63;;
3847;SDS011;1939;48.720;9.166;2024-01-10T07:01:31;27.50;;;11.97;;
3847;SDS011;1939;48.720;9.166;2024-01-10T07:03:56;25.70;;;10.33;;
3847;SDS011;1939;48.720;9.166;2024-01-10T07:06:22;22.77;;;9.77;;
3847;SDS011;1939;48.720;9.166;2024-01-10T07:08:48;17.83;;;8.73;;
3847;SDS011;1939;48.720;9.166;2024-01-10T07:11:14;25.90;;;11.50;;
3847;SDS011;1939;48.720;9.166;2024-01-10T07:13:40;34.40;;;13.03;;
3847;SDS011;1939;48.720;9.166;2024-01-10T07:16:05;23.40;;;10.40;;
3847;SDS011;1939;48.720;9.166;2024-01-10T07:18:31;24.83;;;11.27;;
3847;SDS011;1939;48.720;9.166;2024-01-10T07:20:56;24.40;;;10.53;;
3847;SDS011;1939;48.720;9.166;2024-01-10T07:23:21;23.17;;;10.03;;
3847;SDS011;1939;48.720;9.166;2024-01-10T07:25:48;24.20;;;10.67;;
3847;SDS011;1939;48.720;9.166;2024-01-10T07:28:13;22.93;;;10.13;;
3847;SDS011;1939;48.720;9.166;2024-01-10T07:30:38;27.63;;;9.73;;
3847;SDS011;1939;48.720;9.166;2024-01-10T07:33:03;20.67;;;9.90;;
3847;SDS011;1939;48.720;9.166;2024-01-10T07:35:29;26.00;;;9.97;;
3847;SDS011;1939;48.720;9.166;2024-01-10T07:37:55;19.17;;;10.30;;
3847;SDS011;1939;48.720;9.166;2024-01-10T07:40:20;23.13;;;10.10;;
3847;SDS011;1939;48.720;9.166;2024-01-10T07:42:46;29.23;;;9.47;;
3847;SDS011;1939;48.720;9.166;2024-01-10T07:45:11;20.77;;;10.10;;
3847;SDS011;1939;48.720;9.166;2024-01-10T07:47:37;20.10;;;10.80;;
3847;SDS011;1939;48.720;9.166;2024-01-10T07:50:09;26.30;;;11.30;;
3847;SDS011;1939;48.720;9.166;2024-01-10T07:52:34;33.50;;;11.40;;
3847;SDS011;1939;48.720;9.166;2024-01-10T07:55:00;20.90;;;8.90;;
3847;SDS011;1939;48.720;9.166;2024-01-10T07:57:26;24.83;;;11.10;;
3847;SDS011;1939;48.720;9.166;2024-01-10T07:59:52;26.07;;;10.60;;
3847;SDS011;1939;48.720;9.166;2024-01-10T08:02:17;24.10;;;10.87;;
3847;SDS011;1939;48.720;9.166;2024-01-10T08:04:42;21.73;;;10.87;;
3847;SDS011;1939;48.720;9.166;2024-01-10T08:07:07;28.23;;;12.57;;
3847;SDS011;1939;48.720;9.166;2024-01-10T08:09:33;28.10;;;10.57;;
3847;SDS011;1939;48.720;9.166;2024-01-10T08:11:58;21.33;;;11.20;;
3847;SDS011;1939;48.720;9.166;2024-01-10T08:14:23;17.63;;;10.03;;
3847;SDS011;1939;48.720;9.166;2024-01-10T08:16:49;25.67;;;10.67;;
3847;SDS011;1939;48.720;9.166;2024-01-10T08:19:14;23.20;;;11.03;;
3847;SDS011;1939;48.720;9.166;2024-01-10T08:21:39;25.83;;;11.07;;
3847;SDS011;1939;48.720;9.166;2024-01-10T08:24:05;26.33;;;11.53;;
3847;SDS011;1939;48.720;9.166;2024-01-10T08:26:31;21.33;;;11.60;;
3847;SDS011;1939;48.720;9.166;2024-01-10T08:28:56;32.80;;;14.33;;
3847;SDS011;1939;48.720;9.166;2024-01-10T08:31:22;29.10;;;13.17;;
3847;SDS011;1939;48.720;9.166;2024-01-10T08:33:48;26.87;;;12.30;;
3847;SDS011;1939;48.720;9.166;2024-01-10T08:36:13;30.80;;;13.80;;
3847;SDS011;1939;48.720;9.166;2024-01-10T08:38:39;24.83;;;12.00;;
3847;SDS011;1939;48.720;9.166;2024-01-10T08:41:04;25.63;;;11.83;;
3847;SDS011;1939;48.720;9.166;2024-01-10T08:43:30;26.50;;;12.63;;
3847;SDS011;1939;48.720;9.166;2024-01-10T08:45:56;27.40;;;12.73;;
3847;SDS011;1939;48.720;9.166;2024-01-10T08:48:22;25.57;;;11.30;;
3847;SDS011;1939;48.720;9.166;2024-01-10T08:50:48;25.60;;;11.80;;
3847;SDS011;1939;48.720;9.166;2024-01-10T08:53:13;30.70;;;13.53;;
3847;SDS011;1939;48.720;9.166;2024-01-10T08:55:38;27.43;;;12.63;;
3847;SDS011;1939;48.720;9.166;2024-01-10T08:58:04;29.83;;;14.20;;
3847;SDS011;1939;48.720;9.166;2024-01-10T09:00:29;32.73;;;13.57;;
3847;SDS011;1939;48.720;9.166;2024-01-10T09:02:54;28.40;;;13.50;;
3847;SDS011;1939;48.720;9.166;2024-01-10T09:05:20;31.13;;;13.23;;
3847;SDS011;1939;48.720;9.166;2024-01-10T09:07:46;23.73;;;12.60;;
3847;SDS011;1939;48.720;9.166;2024-01-10T09:10:11;25.23;;;12.47;;
3847;SDS011;1939;48.720;9.166;2024-01-10T09:12:37;29.90;;;14.93;;
3847;SDS011;1939;48.720;9.166;2024-01-10T09:15:02;34.03;;;14.07;;
3847;SDS011;1939;48.720;9.166;2024-01-10T09:17:27;57.87;;;26.87;;
3847;SDS011;1939;48.720;9.166;2024-01-10T09:19:53;34.60;;;15.17;;
3847;SDS011;1939;48.720;9.166;2024-01-10T09:22:18;32.20;;;15.17;;
3847;SDS011;1939;48.720;9.166;2024-01-10T09:24:43;32.30;;;15.63;;
3847;SDS011;1939;48.720;9.166;2024-01-10T09:27:09;31.13;;;16.00;;
3847;SDS011;1939;48.720;9.166;2024-01-10T09:29:35;29.87;;;15.30;;
3847;SDS011;1939;48.720;9.166;2024-01-10T09:32:00;31.23;;;15.40;;
3847;SDS011;1939;48.720;9.166;2024-01-10T09:34:26;36.60;;;16.87;;
3847;SDS011;1939;48.720;9.166;2024-01-10T09:36:51;36.50;;;15.03;;
3847;SDS011;1939;48.720;9.166;2024-01-10T09:39:17;32.00;;;14.50;;
3847;SDS011;1939;48.720;9.166;2024-01-10T09:41:46;30.87;;;16.40;;
3847;SDS011;1939;48.720;9.166;2024-01-10T09:44:16;33.77;;;16.93;;
3847;SDS011;1939;48.720;9.166;2024-01-10T09:46:43;30.53;;;14.53;;
3847;SDS011;1939;48.720;9.166;2024-01-10T09:49:09;34.67;;;17.10;;
3847;SDS011;1939;48.720;9.166;2024-01-10T09:51:34;32.70;;;15.17;;
3847;SDS011;1939;48.720;9.166;2024-01-10T09:53:59;34.80;;;15.57;;
3847;SDS011;1939;48.720;9.166;2024-01-10T09:56:26;37.90;;;16.50;;
3847;SDS011;1939;48.720;9.166;2024-01-10T09:58:52;31.77;;;16.03;;
3847;SDS011;1939;48.720;9.166;2024-01-10T10:01:18;33.80;;;16.33;;
3847;SDS011;1939;48.720;9.166;2024-01-10T10:03:44;43.10;;;16.73;;
3847;SDS011;1939;48.720;9.166;2024-01-10T10:06:10;39.83;;;17.93;;
3847;SDS011;1939;48.720;9.166;2024-01-10T10:08:36;37.70;;;16.80;;
3847;SDS011;1939;48.720;9.166;2024-01-10T10:11:02;33.47;;;16.27;;
3847;SDS011;1939;48.720;9.166;2024-01-10T10:13:28;33.30;;;14.80;;
3847;SDS011;1939;48.720;9.166;2024-01-10T10:16:03;34.10;;;16.50;;
3847;SDS011;1939;48.720;9.166;2024-01-10T10:18:29;34.83;;;15.43;;
3847;SDS011;1939;48.720;9.166;2024-01-10T10:21:13;32.90;;;16.53;;
3847;SDS011;1939;48.720;9.166;2024-01-10T10:23:39;29.60;;;16.40;;
3847;SDS011;1939;48.720;9.166;2024-01-10T10:26:14;45.17;;;15.57;;
3847;SDS011;1939;48.720;9.166;2024-01-10T10:28:47;43.07;;;17.37;;
3847;SDS011;1939;48.720;9.166;2024-01-10T10:31:12;37.80;;;18.30;;
3847;SDS011;1939;48.720;9.166;2024-01-10T10:33:37;33.80;;;15.77;;
3847;SDS011;1939;48.720;9.166;2024-01-10T10:36:03;33.93;;;16.70;;
3847;SDS011;1939;48.720;9.166;2024-01-10T10:38:28;37.37;;;17.73;;
3847;SDS011;1939;48.720;9.166;2024-01-10T10:40:53;33.37;;;15.67;;
3847;SDS011;1939;48.720;9.166;2024-01-10T10:43:19;37.97;;;16.73;;
3847;SDS011;1939;48.720;9.166;2024-01-10T10:45:47;33.20;;;15.90;;
3847;SDS011;1939;48.720;9.166;2024-01-10T10:48:13;34.60;;;16.67;;
3847;SDS011;1939;48.720;9.166;2024-01-10T10:50:40;29.60;;;15.53;;
3847;SDS011;1939;48.720;9.166;2024-01-10T10:53:05;36.33;;;16.67;;
3847;SDS011;1939;48.720;9.166;2024-01-10T10:55:31;39.37;;;16.23;;
3847;SDS011;1939;48.720;9.166;2024-01-10T10:57:58;38.70;;;17.10;;
3847;SDS011;1939;48.720;9.166;2024-01-10T11:00:23;34.80;;;17.67;;
3847;SDS011;1939;48.720;9.166;2024-01-10T11:02:52;30.80;;;15.03;;
3847;SDS011;1939;48.720;9.166;2024-01-10T11:05:18;32.33;;;17.87;;
3847;SDS011;1939;48.720;9.166;2024-01-10T11:07:44;36.10;;;16.80;;
3847;SDS011;1939;48.720;9.166;2024-01-10T11:10:11;32.90;;;16.87;;
3847;SDS011;1939;48.720;9.166;2024-01-10T11:15:21;36.77;;;16.17;;
3847;SDS011;1939;48.720;9.166;2024-01-10T11:17:55;45.93;;;16.17;;
3847;SDS011;1939;48.720;9.166;2024-01-10T11:23:54;37.33;;;16.10;;
3847;SDS011;1939;48.720;9.166;2024-01-10T11:25:48;31.90;;;16.87;;
3847;SDS011;1939;48.720;9.166;2024-01-10T11:28:13;42.00;;;19.00;;
3847;SDS011;1939;48.720;9.166;2024-01-10T11:30:49;39.63;;;18.20;;
3847;SDS011;1939;48.720;9.166;2024-01-10T11:33:23;37.73;;;17.37;;
3847;SDS011;1939;48.720;9.166;2024-01-10T11:36:05;52.37;;;20.67;;
3847;SDS011;1939;48.720;9.166;2024-01-10T11:38:31;32.80;;;15.50;;
3847;SDS011;1939;48.720;9.166;2024-01-10T11:40:56;36.50;;;17.77;;
3847;SDS011;1939;48.720;9.166;2024-01-10T11:43:21;34.43;;;16.80;;
3847;SDS011;1939;48.720;9.166;2024-01-10T11:45:50;38.03;;;19.00;;
3847;SDS011;1939;48.720;9.166;2024-01-10T11:48:15;43.27;;;18.93;;
3847;SDS011;1939;48.720;9.166;2024-01-10T11:50:40;37.57;;;18.70;;
3847;SDS011;1939;48.720;9.166;2024-01-10T11:53:07;41.07;;;18.87;;
3847;SDS011;1939;48.720;9.166;2024-01-10T11:55:50;43.80;;;20.17;;
3847;SDS011;1939;48.720;9.166;2024-01-10T11:58:17;40.90;;;17.83;;
3847;SDS011;1939;48.720;9.166;2024-01-10T12:00:42;42.80;;;20.00;;
3847;SDS011;1939;48.720;9.166;2024-01-10T12:03:07;36.33;;;17.33;;
3847;SDS011;1939;48.720;9.166;2024-01-10T12:05:34;45.30;;;20.20;;
3847;SDS011;1939;48.720;9.166;2024-01-10T12:07:59;37.87;;;17.27;;
3847;SDS011;1939;48.720;9.166;2024-01-10T12:10:25;39.83;;;17.77;;
3847;SDS011;1939;48.720;9.166;2024-01-10T12:12:51;37.43;;;17.03;;
3847;SDS011;1939;48.720;9.166;2024-01-10T12:15:16;38.30;;;19.07;;
3847;SDS011;1939;48.720;9.166;2024-01-10T12:17:41;39.97;;;18.50;;
3847;SDS011;1939;48.720;9.166;2024-01-10T12:20:07;46.10;;;19.63;;
3847;SDS011;1939;48.720;9.166;2024-01-10T12:22:32;40.07;;;17.90;;
3847;SDS011;1939;48.720;9.166;2024-01-10T12:25:03;39.43;;;18.53;;
3847;SDS011;1939;48.720;9.166;2024-01-10T12:27:29;33.37;;;17.50;;
3847;SDS011;1939;48.720;9.166;2024-01-10T12:29:54;40.67;;;18.67;;
3847;SDS011;1939;48.720;9.166;2024-01-10T12:32:20;34.03;;;18.60;;
3847;SDS011;1939;48.720;9.166;2024-01-10T12:34:47;41.90;;;18.27;;
3847;SDS011;1939;48.720;9.166;2024-01-10T12:37:12;43.83;;;19.93;;
3847;SDS011;1939;48.720;9.166;2024-01-10T12:39:38;39.10;;;17.90;;
3847;SDS011;1939;48.720;9.166;2024-01-10T12:42:03;41.97;;;18.30;;
3847;SDS011;1939;48.720;9.166;2024-01-10T12:44:32;40.90;;;19.50;;
3847;SDS011;1939;48.720;9.166;2024-01-10T12:46:57;37.33;;;17.30;;
3847;SDS011;1939;48.720;9.166;2024-01-10T12:49:23;40.67;;;18.40;;
3847;SDS011;1939;48.720;9.166;2024-01-10T12:51:49;39.27;;;17.60;;
3847;SDS011;1939;48.720;9.166;2024-01-10T12:54:15;38.17;;;17.20;;
3847;SDS011;1939;48.720;9.166;2024-01-10T12:56:42;41.00;;;17.70;;
3847;SDS011;1939;48.720;9.166;2024-01-10T12:59:07;32.80;;;17.40;;
3847;SDS011;1939;48.720;9.166;2024-01-10T13:01:34;35.70;;;17.37;;
3847;SDS011;1939;48.720;9.166;2024-01-10T13:03:59;40.10;;;19.70;;
3847;SDS011;1939;48.720;9.166;2024-01-10T13:06:25;44.67;;;19.37;;
3847;SDS011;1939;48.720;9.166;2024-01-10T13:08:50;37.13;;;18.57;;
3847;SDS011;1939;48.720;9.166;2024-01-10T13:11:15;34.00;;;18.87;;
3847;SDS011;1939;48.720;9.166;2024-01-10T13:13:41;40.93;;;18.93;;
3847;SDS011;1939;48.720;9.166;2024-01-10T13:16:08;43.03;;;17.07;;
3847;SDS011;1939;48.720;9.166;2024-01-10T13:18:35;39.93;;;18.10;;
3847;SDS011;1939;48.720;9.166;2024-01-10T13:21:01;40.80;;;18.30;;
3847;SDS011;1939;48.720;9.166;2024-01-10T13:23:26;45.57;;;18.03;;
3847;SDS011;1939;48.720;9.166;2024-01-10T13:25:51;36.70;;;16.47;;
3847;SDS011;1939;48.720;9.166;2024-01-10T13:28:17;29.00;;;16.20;;
3847;SDS011;1939;48.720;9.166;2024-01-10T13:30:43;39.83;;;16.37;;
3847;SDS011;1939;48.720;9.166;2024-01-10T13:33:08;40.67;;;16.47;;
3847;SDS011;1939;48.720;9.166;2024-01-10T13:35:34;39.93;;;17.13;;
3847;SDS011;1939;48.720;9.166;2024-01-10T13:37:59;36.40;;;16.60;;
3847;SDS011;1939;48.720;9.166;2024-01-10T13:40:24;35.27;;;16.20;;
3847;SDS011;1939;48.720;9.166;2024-01-10T13:42:53;29.63;;;15.43;;
3847;SDS011;1939;48.720;9.166;2024-01-10T13:45:18;35.77;;;17.33;;
3847;SDS011;1939;48.720;9.166;2024-01-10T13:47:45;34.73;;;15.67;;
3847;SDS011;1939;48.720;9.166;2024-01-10T13:50:10;37.90;;;15.87;;
3847;SDS011;1939;48.720;9.166;2024-01-10T13:52:35;34.47;;;15.93;;
3847;SDS011;1939;48.720;9.166;2024-01-10T13:55:01;31.93;;;15.40;;
3847;SDS011;1939;48.720;9.166;2024-01-10T13:57:27;34.17;;;15.67;;
3847;SDS011;1939;48.720;9.166;2024-01-10T13:59:52;35.80;;;17.00;;
3847;SDS011;1939;48.720;9.166;2024-01-10T14:02:20;28.50;;;14.27;;
3847;SDS011;1939;48.720;9.166;2024-01-10T14:04:46;30.67;;;14.20;;
3847;SDS011;1939;48.720;9.166;2024-01-10T14:07:11;34.03;;;16.27;;
3847;SDS011;1939;48.720;9.166;2024-01-10T14:09:36;25.07;;;13.47;;
3847;SDS011;1939;48.720;9.166;2024-01-10T14:12:01;29.60;;;15.00;;
3847;SDS011;1939;48.720;9.166;2024-01-10T14:14:27;35.30;;;15.30;;
3847;SDS011;1939;48.720;9.166;2024-01-10T14:16:52;35.37;;;15.83;;
3847;SDS011;1939;48.720;9.166;2024-01-10T14:19:17;31.67;;;14.60;;
3847;SDS011;1939;48.720;9.166;2024-01-10T14:21:43;37.80;;;16.67;;
3847;SDS011;1939;48.720;9.166;2024-01-10T14:24:08;31.77;;;17.20;;
3847;SDS011;1939;48.720;9.166;2024-01-10T14:26:33;35.57;;;15.30;;
3847;SDS011;1939;48.720;9.166;2024-01-10T14:28:58;32.83;;;15.07;;
3847;SDS011;1939;48.720;9.166;2024-01-10T14:31:24;28.77;;;15.73;;
3847;SDS011;1939;48.720;9.166;2024-01-10T14:33:49;34.63;;;14.97;;
3847;SDS011;1939;48.720;9.166;2024-01-10T14:36:15;31.00;;;16.50;;
3847;SDS011;1939;48.720;9.166;2024-01-10T14:38:40;36.67;;;17.87;;
3847;SDS011;1939;48.720;9.166;2024-01-10T14:41:06;38.10;;;16.50;;
3847;SDS011;1939;48.720;9.166;2024-01-10T14:43:32;45.83;;;18.97;;
3847;SDS011;1939;48.720;9.166;2024-01-10T14:45:57;31.17;;;15.93;;
3847;SDS011;1939;48.720;9.166;2024-01-10T14:48:22;35.43;;;15.40;;